sensor_id;sensor_type;location;lat;lon;timestamp;P1;durP1;ratioP1;P2;durP2;ratioP2
19905;SDS011;10115;50.906;4.438;2023-05-10T00:02:06;8.20;;;7.57;;
19905;SDS011;10115;50.906;4.438;2023-05-10T00:04:32;9.27;;;8.47;;
19905;SDS011;10115;50.906;4.438;2023-05-10T00:06:57;7.67;;;6.97;;
19905;SDS011;10115;50.906;4.438;2023-05-10T00:09:23;8.23;;;6.93;;
19905;SDS011;10115;50.906;4.438;2023-05-10T00:11:49;7.40;;;6.80;;
19905;SDS011;10115;50.906;4.438;2023-05-10T00:14:15;7.77;;;7.17;;
19905;SDS011;10115;50.906;4.438;2023-05-10T00:16:41;7.50;;;6.80;;
19905;SDS011;10115;50.906;4.438;2023-05-10T00:19:07;9.50;;;7.47;;
19905;SDS011;10115;50.906;4.438;2023-05-10T00:21:32;7.60;;;6.80;;
19905;SDS011;10115;50.906;4.438;2023-05-10T00:23:58;8.30;;;7.27;;
19905;SDS011;10115;50.906;4.438;2023-05-10T00:26:24;7.13;;;6.53;;
19905;SDS011;10115;50.906;4.438;2023-05-10T00:28:50;10.67;;;7.30;;
19905;SDS011;10115;50.906;4.438;2023-05-10T00:31:16;8.90;;;7.20;;
19905;SDS011;10115;50.906;4.438;2023-05-10T00:33:41;7.83;;;6.20;;
19905;SDS011;10115;50.906;4.438;2023-05-10T00:36:07;5.80;;;5.37;;
19905;SDS011;10115;50.906;4.438;2023-05-10T00:38:33;17.57;;;6.27;;
19905;SDS011;10115;50.906;4.438;2023-05-10T00:40:59;8.97;;;6.30;;
19905;SDS011;10115;50.906;4.438;2023-05-10T00:43:25;7.83;;;6.97;;
19905;SDS011;10115;50.906;4.438;2023-05-10T00:45:50;7.20;;;6.50;;
19905;SDS011;10115;50.906;4.438;2023-05-10T00:48:16;7.87;;;6.97;;
19905;SDS011;10115;50.906;4.438;2023-05-10T00:50:42;6.67;;;6.13;;
19905;SDS011;10115;50.906;4.438;2023-05-10T00:53:07;8.10;;;6.57;;
19905;SDS011;10115;50.906;4.438;2023-05-10T00:55:34;9.73;;;7.70;;
19905;SDS011;10115;50.906;4.438;2023-05-10T00:58:00;12.67;;;6.53;;
19905;SDS011;10115;50.906;4.438;2023-05-10T01:00:26;6.70;;;6.07;;
19905;SDS011;10115;50.906;4.438;2023-05-10T01:02:53;10.77;;;6.33;;
19905;SDS011;10115;50.906;4.438;2023-05-10T01:05:19;9.47;;;6.57;;
19905;SDS011;10115;50.906;4.438;2023-05-10T01:07:45;8.57;;;6.27;;
19905;SDS011;10115;50.906;4.438;2023-05-10T01:10:10;7.30;;;6.70;;
19905;SDS011;10115;50.906;4.438;2023-05-10T01:12:37;11.23;;;6.63;;
19905;SDS011;10115;50.906;4.438;2023-05-10T01:15:05;11.93;;;7.77;;
19905;SDS011;10115;50.906;4.438;2023-05-10T01:17:33;6.67;;;6.10;;
19905;SDS011;10115;50.906;4.438;2023-05-10T01:20:00;8.70;;;6.13;;
19905;SDS011;10115;50.906;4.438;2023-05-10T01:27:55;11.07;;;7.50;;
19905;SDS011;10115;50.906;4.438;2023-05-10T01:33:01;10.50;;;7.70;;
19905;SDS011;10115;50.906;4.438;2023-05-10T01:35:37;10.97;;;8.07;;
19905;SDS011;10115;50.906;4.438;2023-05-10T01:43:26;7.90;;;7.10;;
19905;SDS011;10115;50.906;4.438;2023-05-10T01:46:03;7.87;;;7.20;;
19905;SDS011;10115;50.906;4.438;2023-05-10T01:48:37;9.03;;;7.40;;
19905;SDS011;10115;50.906;4.438;2023-05-10T01:51:06;9.50;;;7.40;;
19905;SDS011;10115;50.906;4.438;2023-05-10T01:53:33;11.67;;;8.13;;
19905;SDS011;10115;50.906;4.438;2023-05-10T01:56:00;11.97;;;8.37;;
19905;SDS011;10115;50.906;4.438;2023-05-10T01:58:31;12.47;;;8.23;;
19905;SDS011;10115;50.906;4.438;2023-05-10T02:01:00;7.30;;;6.63;;
19905;SDS011;10115;50.906;4.438;2023-05-10T02:03:28;9.20;;;7.40;;
19905;SDS011;10115;50.906;4.438;2023-05-10T02:05:56;17.40;;;8.43;;
19905;SDS011;10115;50.906;4.438;2023-05-10T02:08:23;8.40;;;7.03;;
19905;SDS011;10115;50.906;4.438;2023-05-10T02:10:52;9.13;;;7.20;;
19905;SDS011;10115;50.906;4.438;2023-05-10T02:13:20;7.87;;;7.10;;
19905;SDS011;10115;50.906;4.438;2023-05-10T02:15:48;8.67;;;7.67;;
19905;SDS011;10115;50.906;4.438;2023-05-10T02:18:14;10.57;;;7.47;;
19905;SDS011;10115;50.906;4.438;2023-05-10T02:20:42;7.53;;;6.80;;
19905;SDS011;10115;50.906;4.438;2023-05-10T02:23:10;14.73;;;7.90;;
19905;SDS011;10115;50.906;4.438;2023-05-10T02:25:37;7.40;;;6.17;;
19905;SDS011;10115;50.906;4.438;2023-05-10T02:28:04;10.83;;;7.53;;
19905;SDS011;10115;50.906;4.438;2023-05-10T02:30:32;9.40;;;8.33;;
19905;SDS011;10115;50.906;4.438;2023-05-10T02:32:59;7.23;;;6.33;;
19905;SDS011;10115;50.906;4.438;2023-05-10T02:35:26;10.73;;;7.03;;
19905;SDS011;10115;50.906;4.438;2023-05-10T02:37:52;8.07;;;6.57;;
19905;SDS011;10115;50.906;4.438;2023-05-10T02:40:19;10.80;;;7.93;;
19905;SDS011;10115;50.906;4.438;2023-05-10T02:42:47;6.63;;;6.03;;
19905;SDS011;10115;50.906;4.438;2023-05-10T02:45:17;10.17;;;7.20;;
19905;SDS011;10115;50.906;4.438;2023-05-10T02:47:46;7.37;;;6.07;;
19905;SDS011;10115;50.906;4.438;2023-05-10T02:50:11;10.17;;;7.87;;
19905;SDS011;10115;50.906;4.438;2023-05-10T02:52:44;9.90;;;7.03;;
19905;SDS011;10115;50.906;4.438;2023-05-10T02:55:14;9.97;;;7.67;;
19905;SDS011;10115;50.906;4.438;2023-05-10T02:57:43;9.27;;;7.30;;
19905;SDS011;10115;50.906;4.438;2023-05-10T03:00:17;10.60;;;7.97;;
19905;SDS011;10115;50.906;4.438;2023-05-10T03:02:43;13.60;;;7.60;;
19905;SDS011;10115;50.906;4.438;2023-05-10T03:05:09;7.60;;;6.70;;
19905;SDS011;10115;50.906;4.438;2023-05-10T03:07:34;9.60;;;6.83;;
19905;SDS011;10115;50.906;4.438;2023-05-10T03:10:01;8.07;;;7.27;;
19905;SDS011;10115;50.906;4.438;2023-05-10T03:17:57;7.60;;;6.97;;
19905;SDS011;10115;50.906;4.438;2023-05-10T03:20:35;8.73;;;6.27;;
19905;SDS011;10115;50.906;4.438;2023-05-10T03:23:04;6.80;;;6.20;;
19905;SDS011;10115;50.906;4.438;2023-05-10T03:25:37;11.87;;;7.73;;
19905;SDS011;10115;50.906;4.438;2023-05-10T03:28:04;9.07;;;8.17;;
19905;SDS011;10115;50.906;4.438;2023-05-10T03:30:31;15.30;;;8.27;;
19905;SDS011;10115;50.906;4.438;2023-05-10T03:32:57;7.40;;;6.53;;
19905;SDS011;10115;50.906;4.438;2023-05-10T03:35:28;8.97;;;6.93;;
19905;SDS011;10115;50.906;4.438;2023-05-10T03:37:54;10.47;;;7.43;;
19905;SDS011;10115;50.906;4.438;2023-05-10T03:40:20;14.90;;;6.97;;
19905;SDS011;10115;50.906;4.438;2023-05-10T03:42:45;18.23;;;9.20;;
19905;SDS011;10115;50.906;4.438;2023-05-10T03:45:11;13.97;;;8.33;;
19905;SDS011;10115;50.906;4.438;2023-05-10T03:47:37;10.13;;;6.77;;
19905;SDS011;10115;50.906;4.438;2023-05-10T03:50:02;11.40;;;8.43;;
19905;SDS011;10115;50.906;4.438;2023-05-10T03:52:29;15.27;;;7.67;;
19905;SDS011;10115;50.906;4.438;2023-05-10T03:54:54;10.33;;;8.17;;
19905;SDS011;10115;50.906;4.438;2023-05-10T03:57:20;12.23;;;7.00;;
19905;SDS011;10115;50.906;4.438;2023-05-10T03:59:45;8.93;;;7.13;;
19905;SDS011;10115;50.906;4.438;2023-05-10T04:02:11;9.07;;;7.53;;
19905;SDS011;10115;50.906;4.438;2023-05-10T04:04:37;8.90;;;7.20;;
19905;SDS011;10115;50.906;4.438;2023-05-10T04:07:02;15.03;;;9.33;;
19905;SDS011;10115;50.906;4.438;2023-05-10T04:09:28;12.73;;;9.50;;
19905;SDS011;10115;50.906;4.438;2023-05-10T04:11:54;14.20;;;10.40;;
19905;SDS011;10115;50.906;4.438;2023-05-10T04:14:19;16.17;;;9.67;;
19905;SDS011;10115;50.906;4.438;2023-05-10T04:16:45;11.20;;;8.30;;
19905;SDS011;10115;50.906;4.438;2023-05-10T04:19:11;13.43;;;8.60;;
19905;SDS011;10115;50.906;4.438;2023-05-10T04:21:36;16.17;;;10.17;;
19905;SDS011;10115;50.906;4.438;2023-05-10T04:24:02;15.10;;;11.17;;
19905;SDS011;10115;50.906;4.438;2023-05-10T04:26:28;9.27;;;7.90;;
19905;SDS011;10115;50.906;4.438;2023-05-10T04:28:54;9.97;;;7.70;;
19905;SDS011;10115;50.906;4.438;2023-05-10T04:31:19;20.47;;;9.40;;
19905;SDS011;10115;50.906;4.438;2023-05-10T04:33:45;14.60;;;11.30;;
19905;SDS011;10115;50.906;4.438;2023-05-10T04:36:11;16.07;;;11.40;;
19905;SDS011;10115;50.906;4.438;2023-05-10T04:38:36;12.57;;;10.50;;
19905;SDS011;10115;50.906;4.438;2023-05-10T04:41:09;18.13;;;10.13;;
19905;SDS011;10115;50.906;4.438;2023-05-10T04:43:35;14.67;;;10.87;;
19905;SDS011;10115;50.906;4.438;2023-05-10T04:46:01;17.63;;;11.13;;
19905;SDS011;10115;50.906;4.438;2023-05-10T04:48:27;12.47;;;9.47;;
19905;SDS011;10115;50.906;4.438;2023-05-10T04:50:53;19.53;;;10.80;;
19905;SDS011;10115;50.906;4.438;2023-05-10T04:53:19;18.67;;;12.33;;
19905;SDS011;10115;50.906;4.438;2023-05-10T04:55:45;17.80;;;10.80;;
19905;SDS011;10115;50.906;4.438;2023-05-10T04:58:11;11.93;;;9.03;;
19905;SDS011;10115;50.906;4.438;2023-05-10T05:00:37;9.93;;;8.83;;
19905;SDS011;10115;50.906;4.438;2023-05-10T05:03:03;16.13;;;10.87;;
19905;SDS011;10115;50.906;4.438;2023-05-10T05:05:28;12.07;;;10.70;;
19905;SDS011;10115;50.906;4.438;2023-05-10T05:07:54;11.97;;;10.33;;
19905;SDS011;10115;50.906;4.438;2023-05-10T05:10:20;16.87;;;10.77;;
19905;SDS011;10115;50.906;4.438;2023-05-10T05:12:45;17.43;;;10.67;;
19905;SDS011;10115;50.906;4.438;2023-05-10T05:15:11;13.33;;;11.37;;
19905;SDS011;10115;50.906;4.438;2023-05-10T05:17:37;25.13;;;13.80;;
19905;SDS011;10115;50.906;4.438;2023-05-10T05:20:02;15.10;;;11.87;;
19905;SDS011;10115;50.906;4.438;2023-05-10T05:22:29;16.37;;;11.33;;
19905;SDS011;10115;50.906;4.438;2023-05-10T05:24:55;12.90;;;9.97;;
19905;SDS011;10115;50.906;4.438;2023-05-10T05:27:21;18.23;;;12.60;;
19905;SDS011;10115;50.906;4.438;2023-05-10T05:29:49;16.50;;;12.93;;
19905;SDS011;10115;50.906;4.438;2023-05-10T05:32:16;13.23;;;11.83;;
19905;SDS011;10115;50.906;4.438;2023-05-10T05:34:41;13.80;;;12.40;;
19905;SDS011;10115;50.906;4.438;2023-05-10T05:37:12;12.93;;;11.57;;
19905;SDS011;10115;50.906;4.438;2023-05-10T05:39:39;14.10;;;11.33;;
19905;SDS011;10115;50.906;4.438;2023-05-10T05:42:04;15.43;;;12.57;;
19905;SDS011;10115;50.906;4.438;2023-05-10T05:44:30;17.20;;;13.03;;
19905;SDS011;10115;50.906;4.438;2023-05-10T05:46:56;16.13;;;12.27;;
19905;SDS011;10115;50.906;4.438;2023-05-10T05:49:22;14.73;;;10.30;;
19905;SDS011;10115;50.906;4.438;2023-05-10T05:51:47;15.07;;;10.77;;
19905;SDS011;10115;50.906;4.438;2023-05-10T05:54:15;13.70;;;10.23;;
19905;SDS011;10115;50.906;4.438;2023-05-10T05:56:40;20.17;;;10.17;;
19905;SDS011;10115;50.906;4.438;2023-05-10T05:59:06;16.40;;;10.47;;
19905;SDS011;10115;50.906;4.438;2023-05-10T06:01:32;13.10;;;9.80;;
19905;SDS011;10115;50.906;4.438;2023-05-10T06:03:58;12.70;;;10.07;;
19905;SDS011;10115;50.906;4.438;2023-05-10T06:06:24;12.70;;;9.30;;
19905;SDS011;10115;50.906;4.438;2023-05-10T06:08:49;20.70;;;10.67;;
19905;SDS011;10115;50.906;4.438;2023-05-10T06:11:15;8.77;;;7.23;;
19905;SDS011;10115;50.906;4.438;2023-05-10T06:13:41;12.53;;;10.57;;
19905;SDS011;10115;50.906;4.438;2023-05-10T06:16:07;21.33;;;10.33;;
19905;SDS011;10115;50.906;4.438;2023-05-10T06:18:33;21.97;;;10.90;;
19905;SDS011;10115;50.906;4.438;2023-05-10T06:20:59;19.83;;;11.53;;
19905;SDS011;10115;50.906;4.438;2023-05-10T06:23:24;18.90;;;12.13;;
19905;SDS011;10115;50.906;4.438;2023-05-10T06:25:50;13.47;;;10.33;;
19905;SDS011;10115;50.906;4.438;2023-05-10T06:28:16;11.30;;;9.63;;
19905;SDS011;10115;50.906;4.438;2023-05-10T06:30:42;13.50;;;9.43;;
19905;SDS011;10115;50.906;4.438;2023-05-10T06:33:08;10.97;;;8.33;;
19905;SDS011;10115;50.906;4.438;2023-05-10T06:35:34;16.33;;;10.57;;
19905;SDS011;10115;50.906;4.438;2023-05-10T06:37:59;13.23;;;10.13;;
19905;SDS011;10115;50.906;4.438;2023-05-10T06:40:25;13.37;;;10.37;;
19905;SDS011;10115;50.906;4.438;2023-05-10T06:42:51;13.33;;;10.07;;
19905;SDS011;10115;50.906;4.438;2023-05-10T06:45:17;15.73;;;11.27;;
19905;SDS011;10115;50.906;4.438;2023-05-10T06:47:42;18.00;;;11.70;;
19905;SDS011;10115;50.906;4.438;2023-05-10T06:50:08;9.90;;;8.37;;
19905;SDS011;10115;50.906;4.438;2023-05-10T06:52:34;17.67;;;10.37;;
19905;SDS011;10115;50.906;4.438;2023-05-10T06:55:01;12.73;;;9.50;;
19905;SDS011;10115;50.906;4.438;2023-05-10T06:57:28;10.03;;;8.10;;
19905;SDS011;10115;50.906;4.438;2023-05-10T06:59:54;9.63;;;6.97;;
19905;SDS011;10115;50.906;4.438;2023-05-10T07:02:21;25.73;;;11.10;;
19905;SDS011;10115;50.906;4.438;2023-05-10T07:04:47;11.27;;;8.93;;
19905;SDS011;10115;50.906;4.438;2023-05-10T07:07:13;15.20;;;10.53;;
19905;SDS011;10115;50.906;4.438;2023-05-10T07:09:40;18.77;;;10.13;;
19905;SDS011;10115;50.906;4.438;2023-05-10T07:12:05;15.80;;;9.30;;
19905;SDS011;10115;50.906;4.438;2023-05-10T07:14:31;7.00;;;6.30;;
19905;SDS011;10115;50.906;4.438;2023-05-10T07:16:57;13.17;;;7.93;;
19905;SDS011;10115;50.906;4.438;2023-05-10T07:19:23;6.67;;;6.03;;
19905;SDS011;10115;50.906;4.438;2023-05-10T07:21:48;12.10;;;6.97;;
19905;SDS011;10115;50.906;4.438;2023-05-10T07:24:15;9.13;;;7.53;;
19905;SDS011;10115;50.906;4.438;2023-05-10T07:26:40;12.53;;;8.00;;
19905;SDS011;10115;50.906;4.438;2023-05-10T07:29:06;9.57;;;7.40;;
19905;SDS011;10115;50.906;4.438;2023-05-10T07:31:32;22.97;;;8.13;;
19905;SDS011;10115;50.906;4.438;2023-05-10T07:33:58;14.57;;;8.70;;
19905;SDS011;10115;50.906;4.438;2023-05-10T07:36:26;8.27;;;6.23;;
19905;SDS011;10115;50.906;4.438;2023-05-10T07:38:52;11.10;;;7.43;;
19905;SDS011;10115;50.906;4.438;2023-05-10T07:41:18;13.87;;;7.97;;
19905;SDS011;10115;50.906;4.438;2023-05-10T07:43:44;16.83;;;8.87;;
19905;SDS011;10115;50.906;4.438;2023-05-10T07:46:19;18.37;;;8.90;;
19905;SDS011;10115;50.906;4.438;2023-05-10T07:48:45;22.13;;;9.20;;
19905;SDS011;10115;50.906;4.438;2023-05-10T07:51:11;17.53;;;9.93;;
19905;SDS011;10115;50.906;4.438;2023-05-10T07:53:37;13.90;;;8.37;;
19905;SDS011;10115;50.906;4.438;2023-05-10T07:56:24;12.60;;;8.97;;
19905;SDS011;10115;50.906;4.438;2023-05-10T07:58:52;15.50;;;9.73;;
19905;SDS011;10115;50.906;4.438;2023-05-10T08:01:18;13.70;;;6.83;;
19905;SDS011;10115;50.906;4.438;2023-05-10T08:03:44;11.73;;;6.63;;
19905;SDS011;10115;50.906;4.438;2023-05-10T08:06:10;15.40;;;6.30;;
19905;SDS011;10115;50.906;4.438;2023-05-10T08:08:36;14.70;;;6.97;;
19905;SDS011;10115;50.906;4.438;2023-05-10T08:11:02;6.70;;;6.03;;
19905;SDS011;10115;50.906;4.438;2023-05-10T08:13:28;8.73;;;7.40;;
19905;SDS011;10115;50.906;4.438;2023-05-10T08:15:54;18.00;;;7.57;;
19905;SDS011;10115;50.906;4.438;2023-05-10T08:18:19;10.10;;;7.33;;
19905;SDS011;10115;50.906;4.438;2023-05-10T08:20:45;8.47;;;7.30;;
19905;SDS011;10115;50.906;4.438;2023-05-10T08:23:12;14.87;;;7.70;;
19905;SDS011;10115;50.906;4.438;2023-05-10T08:25:38;15.33;;;7.93;;
19905;SDS011;10115;50.906;4.438;2023-05-10T08:28:04;12.23;;;6.77;;
19905;SDS011;10115;50.906;4.438;2023-05-10T08:30:29;10.87;;;7.97;;
19905;SDS011;10115;50.906;4.438;2023-05-10T08:32:55;9.77;;;7.87;;
19905;SDS011;10115;50.906;4.438;2023-05-10T08:35:21;5.87;;;5.27;;
19905;SDS011;10115;50.906;4.438;2023-05-10T08:37:47;9.87;;;6.97;;
19905;SDS011;10115;50.906;4.438;2023-05-10T08:40:13;10.63;;;7.83;;
19905;SDS011;10115;50.906;4.438;2023-05-10T08:42:41;7.83;;;6.73;;
19905;SDS011;10115;50.906;4.438;2023-05-10T08:45:13;11.37;;;8.30;;
19905;SDS011;10115;50.906;4.438;2023-05-10T08:47:39;13.03;;;7.00;;
19905;SDS011;10115;50.906;4.438;2023-05-10T08:50:06;14.67;;;7.07;;
19905;SDS011;10115;50.906;4.438;2023-05-10T08:52:32;12.60;;;6.87;;
19905;SDS011;10115;50.906;4.438;2023-05-10T08:55:02;6.80;;;5.90;;
19905;SDS011;10115;50.906;4.438;2023-05-10T08:57:28;10.53;;;6.87;;
19905;SDS011;10115;50.906;4.438;2023-05-10T08:59:54;12.33;;;7.73;;
19905;SDS011;10115;50.906;4.438;2023-05-10T09:02:21;8.53;;;5.90;;
19905;SDS011;10115;50.906;4.438;2023-05-10T09:04:49;9.30;;;6.83;;
19905;SDS011;10115;50.906;4.438;2023-05-10T09:07:14;7.00;;;5.63;;
19905;SDS011;10115;50.906;4.438;2023-05-10T09:09:42;7.40;;;6.77;;
19905;SDS011;10115;50.906;4.438;2023-05-10T09:12:09;11.77;;;6.43;;
19905;SDS011;10115;50.906;4.438;2023-05-10T09:14:36;7.67;;;6.10;;
19905;SDS011;10115;50.906;4.438;2023-05-10T09:17:03;6.27;;;5.77;;
19905;SDS011;10115;50.906;4.438;2023-05-10T09:19:30;7.23;;;5.67;;
19905;SDS011;10115;50.906;4.438;2023-05-10T09:21:55;8.63;;;5.97;;
19905;SDS011;10115;50.906;4.438;2023-05-10T09:24:25;11.97;;;6.57;;
19905;SDS011;10115;50.906;4.438;2023-05-10T09:26:54;5.70;;;5.30;;
19905;SDS011;10115;50.906;4.438;2023-05-10T09:29:22;8.70;;;6.47;;
19905;SDS011;10115;50.906;4.438;2023-05-10T09:31:49;11.80;;;6.47;;
19905;SDS011;10115;50.906;4.438;2023-05-10T09:34:22;7.13;;;6.40;;
19905;SDS011;10115;50.906;4.438;2023-05-10T09:36:58;13.83;;;6.87;;
19905;SDS011;10115;50.906;4.438;2023-05-10T09:39:29;9.37;;;5.20;;
19905;SDS011;10115;50.906;4.438;2023-05-10T09:42:06;6.40;;;5.37;;
19905;SDS011;10115;50.906;4.438;2023-05-10T09:44:35;7.40;;;6.70;;
19905;SDS011;10115;50.906;4.438;2023-05-10T09:47:05;7.00;;;6.30;;
19905;SDS011;10115;50.906;4.438;2023-05-10T09:49:31;5.80;;;5.30;;
19905;SDS011;10115;50.906;4.438;2023-05-10T09:52:05;5.13;;;4.73;;
19905;SDS011;10115;50.906;4.438;2023-05-10T09:54:31;7.57;;;5.17;;
19905;SDS011;10115;50.906;4.438;2023-05-10T09:56:58;7.03;;;5.07;;
19905;SDS011;10115;50.906;4.438;2023-05-10T09:59:27;7.77;;;5.57;;
19905;SDS011;10115;50.906;4.438;2023-05-10T10:01:57;5.77;;;5.27;;
19905;SDS011;10115;50.906;4.438;2023-05-10T10:04:24;5.63;;;5.13;;
19905;SDS011;10115;50.906;4.438;2023-05-10T10:07:00;5.03;;;4.63;;
19905;SDS011;10115;50.906;4.438;2023-05-10T10:09:29;6.63;;;5.40;;
19905;SDS011;10115;50.906;4.438;2023-05-10T10:11:56;5.33;;;4.83;;
19905;SDS011;10115;50.906;4.438;2023-05-10T10:14:22;5.77;;;5.27;;
19905;SDS011;10115;50.906;4.438;2023-05-10T10:16:57;7.07;;;5.53;;
19905;SDS011;10115;50.906;4.438;2023-05-10T10:19:28;4.80;;;4.40;;
19905;SDS011;10115;50.906;4.438;2023-05-10T10:21:55;8.00;;;5.40;;
19905;SDS011;10115;50.906;4.438;2023-05-10T10:24:25;5.73;;;5.23;;
19905;SDS011;10115;50.906;4.438;2023-05-10T10:26:51;6.00;;;5.50;;
19905;SDS011;10115;50.906;4.438;2023-05-10T10:29:23;4.57;;;4.27;;
19905;SDS011;10115;50.906;4.438;2023-05-10T10:32:03;6.27;;;5.40;;
19905;SDS011;10115;50.906;4.438;2023-05-10T10:34:52;5.90;;;5.30;;
19905;SDS011;10115;50.906;4.438;2023-05-10T10:37:19;5.83;;;4.37;;
19905;SDS011;10115;50.906;4.438;2023-05-10T10:39:47;6.17;;;5.20;;
19905;SDS011;10115;50.906;4.438;2023-05-10T10:42:14;5.47;;;4.97;;
19905;SDS011;10115;50.906;4.438;2023-05-10T10:45:13;5.03;;;4.63;;
19905;SDS011;10115;50.906;4.438;2023-05-10T10:47:39;5.20;;;4.80;;
19905;SDS011;10115;50.906;4.438;2023-05-10T10:50:05;6.10;;;5.50;;
19905;SDS011;10115;50.906;4.438;2023-05-10T10:52:42;5.97;;;5.00;;
19905;SDS011;10115;50.906;4.438;2023-05-10T10:57:43;5.37;;;4.97;;
19905;SDS011;10115;50.906;4.438;2023-05-10T11:00:26;6.83;;;5.87;;
19905;SDS011;10115;50.906;4.438;2023-05-10T11:07:57;6.33;;;5.50;;
19905;SDS011;10115;50.906;4.438;2023-05-10T11:10:24;6.20;;;4.73;;
19905;SDS011;10115;50.906;4.438;2023-05-10T11:13:04;8.07;;;5.83;;
19905;SDS011;10115;50.906;4.438;2023-05-10T11:15:38;7.20;;;5.10;;
19905;SDS011;10115;50.906;4.438;2023-05-10T11:18:24;5.37;;;4.80;;
19905;SDS011;10115;50.906;4.438;2023-05-10T11:20:58;6.50;;;5.90;;
19905;SDS011;10115;50.906;4.438;2023-05-10T11:24:12;4.97;;;4.57;;
19905;SDS011;10115;50.906;4.438;2023-05-10T11:26:21;5.73;;;5.23;;
19905;SDS011;10115;50.906;4.438;2023-05-10T11:28:50;6.00;;;5.40;;
19905;SDS011;10115;50.906;4.438;2023-05-10T11:31:19;6.13;;;5.53;;
19905;SDS011;10115;50.906;4.438;2023-05-10T11:33:46;6.43;;;5.83;;
19905;SDS011;10115;50.906;4.438;2023-05-10T11:36:16;8.70;;;5.90;;
19905;SDS011;10115;50.906;4.438;2023-05-10T11:39:00;10.43;;;6.27;;
19905;SDS011;10115;50.906;4.438;2023-05-10T11:41:27;6.83;;;6.13;;
19905;SDS011;10115;50.906;4.438;2023-05-10T11:43:54;6.13;;;5.63;;
19905;SDS011;10115;50.906;4.438;2023-05-10T11:46:21;7.10;;;5.80;;
19905;SDS011;10115;50.906;4.438;2023-05-10T11:48:53;7.30;;;4.80;;
19905;SDS011;10115;50.906;4.438;2023-05-10T11:51:33;5.47;;;4.67;;
19905;SDS011;10115;50.906;4.438;2023-05-10T11:54:05;5.10;;;4.67;;
19905;SDS011;10115;50.906;4.438;2023-05-10T11:56:33;5.60;;;5.10;;
19905;SDS011;10115;50.906;4.438;2023-05-10T11:58:59;5.53;;;5.13;;
19905;SDS011;10115;50.906;4.438;2023-05-10T12:01:26;5.07;;;4.77;;
19905;SDS011;10115;50.906;4.438;2023-05-10T12:03:54;5.43;;;4.97;;
19905;SDS011;10115;50.906;4.438;2023-05-10T12:06:26;5.00;;;4.50;;
19905;SDS011;10115;50.906;4.438;2023-05-10T12:08:53;6.03;;;4.50;;
19905;SDS011;10115;50.906;4.438;2023-05-10T12:11:19;4.90;;;4.50;;
19905;SDS011;10115;50.906;4.438;2023-05-10T12:13:49;5.73;;;5.23;;
19905;SDS011;10115;50.906;4.438;2023-05-10T12:16:16;5.07;;;4.67;;
19905;SDS011;10115;50.906;4.438;2023-05-10T12:18:42;7.87;;;5.33;;
19905;SDS011;10115;50.906;4.438;2023-05-10T12:21:11;3.43;;;3.33;;
19905;SDS011;10115;50.906;4.438;2023-05-10T12:23:40;4.70;;;4.40;;
19905;SDS011;10115;50.906;4.438;2023-05-10T12:26:09;5.63;;;5.20;;
19905;SDS011;10115;50.906;4.438;2023-05-10T12:28:35;7.00;;;5.17;;
19905;SDS011;10115;50.906;4.438;2023-05-10T12:31:02;5.60;;;5.10;;
19905;SDS011;10115;50.906;4.438;2023-05-10T12:33:35;5.87;;;5.27;;
19905;SDS011;10115;50.906;4.438;2023-05-10T12:36:06;6.77;;;5.90;;
19905;SDS011;10115;50.906;4.438;2023-05-10T12:38:36;5.30;;;4.50;;
19905;SDS011;10115;50.906;4.438;2023-05-10T12:41:08;7.87;;;5.60;;
19905;SDS011;10115;50.906;4.438;2023-05-10T12:43:35;6.87;;;6.07;;
19905;SDS011;10115;50.906;4.438;2023-05-10T12:46:12;13.43;;;9.00;;
19905;SDS011;10115;50.906;4.438;2023-05-10T12:48:39;9.67;;;5.70;;
19905;SDS011;10115;50.906;4.438;2023-05-10T12:51:06;5.90;;;5.30;;
19905;SDS011;10115;50.906;4.438;2023-05-10T12:53:38;4.97;;;4.47;;
19905;SDS011;10115;50.906;4.438;2023-05-10T12:56:04;5.50;;;5.00;;
19905;SDS011;10115;50.906;4.438;2023-05-10T12:58:30;7.10;;;5.40;;
19905;SDS011;10115;50.906;4.438;2023-05-10T13:00:57;4.70;;;4.37;;
19905;SDS011;10115;50.906;4.438;2023-05-10T13:03:23;5.63;;;5.20;;
19905;SDS011;10115;50.906;4.438;2023-05-10T13:05:48;4.70;;;3.90;;
19905;SDS011;10115;50.906;4.438;2023-05-10T13:08:14;7.17;;;6.00;;
19905;SDS011;10115;50.906;4.438;2023-05-10T13:10:40;5.37;;;4.97;;
19905;SDS011;10115;50.906;4.438;2023-05-10T13:13:06;5.07;;;4.67;;
19905;SDS011;10115;50.906;4.438;2023-05-10T13:15:32;5.20;;;4.80;;
19905;SDS011;10115;50.906;4.438;2023-05-10T13:17:58;6.80;;;4.93;;
19905;SDS011;10115;50.906;4.438;2023-05-10T13:20:24;4.90;;;4.60;;
19905;SDS011;10115;50.906;4.438;2023-05-10T13:22:50;3.73;;;3.53;;
19905;SDS011;10115;50.906;4.438;2023-05-10T13:25:16;5.57;;;5.07;;
19905;SDS011;10115;50.906;4.438;2023-05-10T13:27:41;6.03;;;4.83;;
19905;SDS011;10115;50.906;4.438;2023-05-10T13:30:08;5.20;;;4.80;;
19905;SDS011;10115;50.906;4.438;2023-05-10T13:32:34;5.67;;;5.17;;
19905;SDS011;10115;50.906;4.438;2023-05-10T13:35:00;5.57;;;5.07;;
19905;SDS011;10115;50.906;4.438;2023-05-10T13:37:28;6.37;;;4.97;;
19905;SDS011;10115;50.906;4.438;2023-05-10T13:39:54;4.57;;;4.20;;
19905;SDS011;10115;50.906;4.438;2023-05-10T13:42:21;5.97;;;5.37;;
19905;SDS011;10115;50.906;4.438;2023-05-10T13:44:48;4.07;;;3.77;;
19905;SDS011;10115;50.906;4.438;2023-05-10T13:47:13;5.37;;;4.87;;
19905;SDS011;10115;50.906;4.438;2023-05-10T13:49:39;7.47;;;5.77;;
19905;SDS011;10115;50.906;4.438;2023-05-10T13:52:05;5.43;;;4.10;;
19905;SDS011;10115;50.906;4.438;2023-05-10T13:54:35;5.60;;;5.03;;
19905;SDS011;10115;50.906;4.438;2023-05-10T13:57:01;6.97;;;5.07;;
19905;SDS011;10115;50.906;4.438;2023-05-10T13:59:28;6.73;;;5.30;;
19905;SDS011;10115;50.906;4.438;2023-05-10T14:01:54;4.13;;;3.87;;
19905;SDS011;10115;50.906;4.438;2023-05-10T14:04:21;4.70;;;4.37;;
19905;SDS011;10115;50.906;4.438;2023-05-10T14:06:46;6.73;;;5.57;;
19905;SDS011;10115;50.906;4.438;2023-05-10T14:09:12;5.23;;;4.83;;
19905;SDS011;10115;50.906;4.438;2023-05-10T14:11:38;10.77;;;5.70;;
19905;SDS011;10115;50.906;4.438;2023-05-10T14:14:08;5.60;;;5.10;;
19905;SDS011;10115;50.906;4.438;2023-05-10T14:16:36;6.23;;;5.67;;
19905;SDS011;10115;50.906;4.438;2023-05-10T14:19:02;4.73;;;4.37;;
19905;SDS011;10115;50.906;4.438;2023-05-10T14:21:27;8.17;;;6.53;;
19905;SDS011;10115;50.906;4.438;2023-05-10T14:23:55;5.60;;;5.20;;
19905;SDS011;10115;50.906;4.438;2023-05-10T14:26:21;11.03;;;6.77;;
19905;SDS011;10115;50.906;4.438;2023-05-10T14:28:47;10.00;;;6.40;;
19905;SDS011;10115;50.906;4.438;2023-05-10T14:31:12;7.03;;;6.30;;
19905;SDS011;10115;50.906;4.438;2023-05-10T14:33:39;10.83;;;6.67;;
19905;SDS011;10115;50.906;4.438;2023-05-10T14:36:05;9.03;;;6.27;;
19905;SDS011;10115;50.906;4.438;2023-05-10T14:38:31;7.23;;;6.13;;
19905;SDS011;10115;50.906;4.438;2023-05-10T14:40:57;8.53;;;6.77;;
19905;SDS011;10115;50.906;4.438;2023-05-10T14:43:23;5.10;;;4.73;;
19905;SDS011;10115;50.906;4.438;2023-05-10T14:45:49;6.13;;;5.33;;
19905;SDS011;10115;50.906;4.438;2023-05-10T14:48:15;6.93;;;6.13;;
19905;SDS011;10115;50.906;4.438;2023-05-10T14:50:42;7.13;;;6.23;;
19905;SDS011;10115;50.906;4.438;2023-05-10T14:53:09;11.23;;;6.63;;
19905;SDS011;10115;50.906;4.438;2023-05-10T14:55:35;7.67;;;6.83;;
19905;SDS011;10115;50.906;4.438;2023-05-10T14:58:01;8.87;;;6.37;;
19905;SDS011;10115;50.906;4.438;2023-05-10T15:00:28;5.73;;;4.63;;
19905;SDS011;10115;50.906;4.438;2023-05-10T15:02:54;6.87;;;5.83;;
19905;SDS011;10115;50.906;4.438;2023-05-10T15:05:20;5.43;;;4.70;;
19905;SDS011;10115;50.906;4.438;2023-05-10T15:07:46;12.80;;;5.63;;
19905;SDS011;10115;50.906;4.438;2023-05-10T15:10:12;6.43;;;5.53;;